createdAt,value
2018-12-21T00:00:48.337Z,7.78
2018-12-21T00:01:50.790Z,7.73
2018-12-21T00:02:53.228Z,7.73
2018-12-21T00:03:55.763Z,7.73
2018-12-21T00:04:58.330Z,7.72
2018-12-21T00:06:00.840Z,7.69
2018-12-21T00:07:03.296Z,7.71
2018-12-21T00:08:05.727Z,7.69
2018-12-21T00:09:08.159Z,7.73
2018-12-21T00:10:10.598Z,7.75
2018-12-21T00:11:13.050Z,7.72
2018-12-21T00:12:15.503Z,7.77
2018-12-21T00:13:17.970Z,7.78
2018-12-21T00:14:20.426Z,7.80
2018-12-21T00:15:22.868Z,7.84
2018-12-21T00:16:25.318Z,7.85
2018-12-21T00:17:34.591Z,7.92
2018-12-21T00:18:32.249Z,7.92
2018-12-21T00:19:34.676Z,7.92
2018-12-21T00:20:37.113Z,7.93
2018-12-21T00:21:39.582Z,7.95
2018-12-21T00:22:42.073Z,7.94
2018-12-21T00:23:44.507Z,7.95
2018-12-21T00:24:46.960Z,8.00
2018-12-21T00:25:49.403Z,7.99
2018-12-21T00:26:51.855Z,8.00
2018-12-21T00:27:54.290Z,8.03
2018-12-21T00:28:56.723Z,8.03
2018-12-21T00:29:59.161Z,8.00
2018-12-21T00:31:07.288Z,8.03
2018-12-21T00:32:15.491Z,8.03
2018-12-21T00:33:23.535Z,8.05
2018-12-21T00:34:31.786Z,8.06
2018-12-21T00:35:39.750Z,8.02
2018-12-21T00:36:47.866Z,7.98
2018-12-21T00:37:56.024Z,7.96
2018-12-21T00:39:04.160Z,7.94
2018-12-21T00:40:12.533Z,7.93
2018-12-21T00:41:14.950Z,7.93
2018-12-21T00:42:22.009Z,7.95
2018-12-21T00:43:28.371Z,7.93
2018-12-21T00:44:32.606Z,7.95
2018-12-21T00:45:36.636Z,7.98
2018-12-21T00:46:40.366Z,7.92
2018-12-21T00:47:42.821Z,7.81
2018-12-21T00:48:45.294Z,7.78
2018-12-21T00:49:47.810Z,7.88
2018-12-21T00:50:50.309Z,7.83
2018-12-21T00:51:52.760Z,7.84
2018-12-21T00:52:55.219Z,7.83
2018-12-21T00:53:57.678Z,7.84
2018-12-21T00:55:00.140Z,7.90
2018-12-21T00:56:02.581Z,7.92
2018-12-21T00:57:05.128Z,7.98
2018-12-21T00:58:07.592Z,7.99
2018-12-21T00:59:10.028Z,8.02
2018-12-21T01:00:17.375Z,8.04
2018-12-21T01:01:20.207Z,8.02
2018-12-21T01:02:22.672Z,8.05
2018-12-21T01:03:25.276Z,8.03
2018-12-21T01:04:27.708Z,8.02
2018-12-21T01:05:30.357Z,8.03
2018-12-21T01:06:32.847Z,8.03
2018-12-21T01:07:35.380Z,8.02
2018-12-21T01:08:37.901Z,8.09
2018-12-21T01:09:40.343Z,8.08
2018-12-21T01:10:42.870Z,8.04
2018-12-21T01:11:45.425Z,8.03
2018-12-21T01:12:47.901Z,8.00
2018-12-21T01:13:50.342Z,8.00
2018-12-21T01:14:52.806Z,7.99
2018-12-21T01:15:55.401Z,8.02
2018-12-21T01:16:57.832Z,7.97
2018-12-21T01:18:00.364Z,7.99
2018-12-21T01:19:02.799Z,8.01
2018-12-21T01:20:06.631Z,8.02
2018-12-21T01:21:11.089Z,8.01
2018-12-21T01:22:13.528Z,8.03
2018-12-21T01:23:15.991Z,8.08
2018-12-21T01:24:18.431Z,8.06
2018-12-21T01:25:20.856Z,8.04
2018-12-21T01:26:23.309Z,8.02
2018-12-21T01:27:26.132Z,8.01
2018-12-21T01:28:28.653Z,8.10
2018-12-21T01:29:31.173Z,8.01
2018-12-21T01:30:33.616Z,8.08
2018-12-21T01:31:36.074Z,8.06
2018-12-21T01:32:38.527Z,8.04
2018-12-21T01:33:41.004Z,8.08
2018-12-21T01:34:43.503Z,8.09
2018-12-21T01:35:45.988Z,8.05
2018-12-21T01:36:48.430Z,8.06
2018-12-21T01:37:50.883Z,8.10
2018-12-21T01:38:53.492Z,8.13
2018-12-21T01:39:55.936Z,8.07
2018-12-21T01:40:58.373Z,8.10
2018-12-21T01:42:00.944Z,8.12
2018-12-21T01:43:03.563Z,8.12
2018-12-21T01:44:06.012Z,8.06
2018-12-21T01:45:08.457Z,8.09
2018-12-21T01:46:10.891Z,8.11
2018-12-21T01:47:13.423Z,8.09
2018-12-21T01:48:15.877Z,8.10
2018-12-21T01:49:18.308Z,8.11
2018-12-21T01:50:20.764Z,8.13
2018-12-21T01:51:23.217Z,8.17
2018-12-21T01:52:25.664Z,8.22
2018-12-21T01:53:28.172Z,8.17
2018-12-21T01:54:30.614Z,8.18
2018-12-21T01:55:33.068Z,8.24
2018-12-21T01:56:35.504Z,8.25
2018-12-21T01:57:37.949Z,8.23
2018-12-21T01:58:40.407Z,8.21
2018-12-21T01:59:42.858Z,8.20
2018-12-21T02:00:45.405Z,8.17
2018-12-21T02:01:47.952Z,8.13
2018-12-21T02:02:50.402Z,8.18
2018-12-21T02:03:52.867Z,8.15
2018-12-21T02:04:55.320Z,8.17
2018-12-21T02:05:57.752Z,8.20
2018-12-21T02:07:00.182Z,8.21
2018-12-21T02:08:02.633Z,8.25
2018-12-21T02:09:06.249Z,8.27
2018-12-21T02:10:08.796Z,8.32
2018-12-21T02:11:11.268Z,8.27
2018-12-21T02:12:13.720Z,8.31
2018-12-21T02:13:16.153Z,8.32
2018-12-21T02:14:18.612Z,8.26
2018-12-21T02:15:21.084Z,8.26
2018-12-21T02:16:23.523Z,8.18
2018-12-21T02:17:25.965Z,8.19
2018-12-21T02:18:28.398Z,8.20
2018-12-21T02:19:30.864Z,8.21
2018-12-21T02:20:33.329Z,8.30
2018-12-21T02:21:36.050Z,8.31
2018-12-21T02:22:38.490Z,8.32
2018-12-21T02:23:40.925Z,8.26
2018-12-21T02:24:43.388Z,8.27
2018-12-21T02:25:45.873Z,8.27
2018-12-21T02:26:48.315Z,8.33
2018-12-21T02:27:50.833Z,8.32
2018-12-21T02:28:53.272Z,8.34
2018-12-21T02:29:55.727Z,8.35
2018-12-21T02:30:58.183Z,8.36
2018-12-21T02:32:00.608Z,8.40
2018-12-21T02:33:03.039Z,8.38
2018-12-21T02:34:05.557Z,8.39
2018-12-21T02:35:08.027Z,8.42
2018-12-21T02:36:10.477Z,8.43
2018-12-21T02:37:12.913Z,8.43
2018-12-21T02:38:15.347Z,8.44
2018-12-21T02:39:17.839Z,8.43
2018-12-21T02:40:20.304Z,8.41
2018-12-21T02:41:22.731Z,8.40
2018-12-21T02:42:25.171Z,8.40
2018-12-21T02:43:27.628Z,8.42
2018-12-21T02:44:30.060Z,8.45
2018-12-21T02:45:32.533Z,8.44
2018-12-21T02:46:34.990Z,8.44
2018-12-21T02:47:37.424Z,8.44
2018-12-21T02:48:39.863Z,8.47
2018-12-21T02:49:42.302Z,8.44
2018-12-21T02:50:44.753Z,8.44
2018-12-21T02:51:47.208Z,8.46
2018-12-21T02:52:49.649Z,8.50
2018-12-21T02:53:52.136Z,8.49
2018-12-21T02:54:54.571Z,8.49
2018-12-21T02:55:57.039Z,8.46
2018-12-21T02:56:59.483Z,8.49
2018-12-21T02:58:01.938Z,8.47
2018-12-21T02:59:04.381Z,8.45
2018-12-21T03:00:08.201Z,8.46
2018-12-21T03:01:10.657Z,8.44
2018-12-21T03:02:13.118Z,8.44
2018-12-21T03:03:15.581Z,8.46
2018-12-21T03:04:18.045Z,8.46
2018-12-21T03:05:20.487Z,8.49
2018-12-21T03:06:22.950Z,8.48
2018-12-21T03:07:25.411Z,8.57
2018-12-21T03:08:27.844Z,8.48
2018-12-21T03:09:30.359Z,8.49
2018-12-21T03:10:32.807Z,8.51
2018-12-21T03:11:35.269Z,8.48
2018-12-21T03:12:37.727Z,8.45
2018-12-21T03:13:40.163Z,8.44
2018-12-21T03:14:42.638Z,8.45
2018-12-21T03:15:45.139Z,8.45
2018-12-21T03:16:47.595Z,8.40
2018-12-21T03:17:50.041Z,8.41
2018-12-21T03:18:52.502Z,8.40
2018-12-21T03:19:54.939Z,8.42
2018-12-21T03:20:57.419Z,8.46
2018-12-21T03:21:59.872Z,8.42
2018-12-21T03:23:02.320Z,8.45
2018-12-21T03:24:04.780Z,8.45
2018-12-21T03:25:07.323Z,8.54
2018-12-21T03:26:09.788Z,8.54
2018-12-21T03:27:12.246Z,8.53
2018-12-21T03:28:14.672Z,8.48
2018-12-21T03:29:17.107Z,8.49
2018-12-21T03:30:19.553Z,8.54
2018-12-21T03:31:22.102Z,8.45
2018-12-21T03:32:24.564Z,8.49
2018-12-21T03:33:27.167Z,8.44
2018-12-21T03:34:29.720Z,8.43
2018-12-21T03:35:32.264Z,8.46
2018-12-21T03:36:34.701Z,8.43
2018-12-21T03:37:37.164Z,8.45
2018-12-21T03:38:39.615Z,8.52
2018-12-21T03:39:42.096Z,8.45
2018-12-21T03:40:44.545Z,8.42
2018-12-21T03:41:46.980Z,8.44
2018-12-21T03:42:49.446Z,8.44
2018-12-21T03:43:51.991Z,8.43
2018-12-21T03:44:54.432Z,8.43
2018-12-21T03:45:56.863Z,8.46
2018-12-21T03:46:59.301Z,8.36
2018-12-21T03:48:01.784Z,8.38
2018-12-21T03:49:04.257Z,8.43
2018-12-21T03:50:06.863Z,8.44
2018-12-21T03:51:09.304Z,8.42
2018-12-21T03:52:11.749Z,8.40
2018-12-21T03:53:14.191Z,8.40
2018-12-21T03:54:16.642Z,8.43
2018-12-21T03:55:19.071Z,8.38
2018-12-21T03:56:21.523Z,8.39
2018-12-21T03:57:23.968Z,8.41
2018-12-21T03:58:26.423Z,8.42
2018-12-21T03:59:28.887Z,8.45
2018-12-21T04:00:31.323Z,8.33
2018-12-21T04:01:33.768Z,8.21
2018-12-21T04:02:36.208Z,8.09
2018-12-21T04:03:38.676Z,8.10
2018-12-21T04:04:41.166Z,8.13
2018-12-21T04:05:43.679Z,7.92
2018-12-21T04:06:46.131Z,7.74
2018-12-21T04:07:48.579Z,7.66
2018-12-21T04:08:51.047Z,7.52
2018-12-21T04:09:53.483Z,7.54
2018-12-21T04:10:55.933Z,7.40
2018-12-21T04:11:58.379Z,7.54
2018-12-21T04:13:00.826Z,7.49
2018-12-21T04:14:03.397Z,7.36
2018-12-21T04:15:05.936Z,7.30
2018-12-21T04:16:08.394Z,7.28
2018-12-21T04:17:10.833Z,7.28
2018-12-21T04:18:13.282Z,7.23
2018-12-21T04:19:15.743Z,7.32
2018-12-21T04:20:18.188Z,7.30
2018-12-21T04:21:20.631Z,7.34
2018-12-21T04:22:23.065Z,7.42
2018-12-21T04:23:25.502Z,7.48
2018-12-21T04:24:27.960Z,7.45
2018-12-21T04:25:30.409Z,7.39
2018-12-21T04:26:32.880Z,7.43
2018-12-21T04:27:35.335Z,7.36
2018-12-21T04:28:37.771Z,7.40
2018-12-21T04:29:40.723Z,7.42
2018-12-21T04:30:43.156Z,7.42
2018-12-21T04:31:45.605Z,7.39
2018-12-21T04:32:48.045Z,7.40
2018-12-21T04:33:50.597Z,7.50
2018-12-21T04:34:53.056Z,7.50
2018-12-21T04:35:55.498Z,7.52
2018-12-21T04:36:57.948Z,7.29
2018-12-21T04:38:00.387Z,7.26
2018-12-21T04:39:02.830Z,7.23
2018-12-21T04:40:06.692Z,7.16
2018-12-21T04:41:09.129Z,7.15
2018-12-21T04:42:11.574Z,7.11
2018-12-21T04:43:14.015Z,7.14
2018-12-21T04:44:16.448Z,7.09
2018-12-21T04:45:18.890Z,7.10
2018-12-21T04:46:21.341Z,6.99
2018-12-21T04:47:23.774Z,6.97
2018-12-21T04:48:26.205Z,6.98
2018-12-21T04:49:28.664Z,7.06
2018-12-21T04:50:31.114Z,7.08
2018-12-21T04:51:33.572Z,7.07
2018-12-21T04:52:43.176Z,7.10
2018-12-21T04:53:40.551Z,7.10
2018-12-21T04:54:43.015Z,7.13
2018-12-21T04:55:51.204Z,7.03
2018-12-21T04:56:53.640Z,6.98
2018-12-21T04:57:56.069Z,7.02
2018-12-21T04:58:58.499Z,7.06
2018-12-21T05:00:00.964Z,6.97
2018-12-21T05:01:03.447Z,7.03
2018-12-21T05:02:06.060Z,7.06
2018-12-21T05:03:08.531Z,7.07
2018-12-21T05:04:19.793Z,7.04
2018-12-21T05:05:16.427Z,7.03
2018-12-21T05:06:18.857Z,6.99
2018-12-21T05:07:21.310Z,7.01
2018-12-21T05:08:23.759Z,7.08
2018-12-21T05:09:26.190Z,7.11
2018-12-21T05:10:28.639Z,7.14
2018-12-21T05:11:31.072Z,7.16
2018-12-21T05:12:33.516Z,7.10
2018-12-21T05:13:35.948Z,7.05
2018-12-21T05:14:38.387Z,7.07
2018-12-21T05:15:40.828Z,7.05
2018-12-21T05:16:43.359Z,6.92
2018-12-21T05:17:45.802Z,6.96
2018-12-21T05:18:48.247Z,7.00
2018-12-21T05:19:50.684Z,6.97
2018-12-21T05:20:53.128Z,7.03
2018-12-21T05:21:55.623Z,7.05
2018-12-21T05:22:58.068Z,6.90
2018-12-21T05:24:00.496Z,6.93
2018-12-21T05:25:02.935Z,6.99
2018-12-21T05:26:05.500Z,6.96
2018-12-21T05:27:07.931Z,6.90
2018-12-21T05:28:10.365Z,6.94
2018-12-21T05:29:12.802Z,6.97
2018-12-21T05:30:15.358Z,6.88
2018-12-21T05:31:17.823Z,6.86
2018-12-21T05:32:20.275Z,6.79
2018-12-21T05:33:22.717Z,6.83
2018-12-21T05:34:25.162Z,6.85
2018-12-21T05:35:27.598Z,6.73
2018-12-21T05:36:30.081Z,6.73
2018-12-21T05:37:32.556Z,6.79
2018-12-21T05:38:35.112Z,6.84
2018-12-21T05:39:37.595Z,6.74
2018-12-21T05:40:41.618Z,6.77
2018-12-21T05:41:44.078Z,6.78
2018-12-21T05:42:46.545Z,6.80
2018-12-21T05:43:48.985Z,6.77
2018-12-21T05:44:51.428Z,6.72
2018-12-21T05:45:53.868Z,6.78
2018-12-21T05:46:56.315Z,6.79
2018-12-21T05:47:58.765Z,6.85
2018-12-21T05:49:01.216Z,6.79
2018-12-21T05:50:04.205Z,6.71
2018-12-21T05:51:06.654Z,6.66
2018-12-21T05:52:09.114Z,6.59
2018-12-21T05:53:11.567Z,6.56
2018-12-21T05:54:13.999Z,6.55
2018-12-21T05:55:16.430Z,6.42
2018-12-21T05:56:18.885Z,6.37
2018-12-21T05:57:21.346Z,6.38
2018-12-21T05:58:23.806Z,6.49
2018-12-21T05:59:26.246Z,6.50
2018-12-21T06:00:28.731Z,6.45
2018-12-21T06:01:31.214Z,6.43
2018-12-21T06:02:33.697Z,6.44
2018-12-21T06:03:36.196Z,6.26
2018-12-21T06:04:38.627Z,6.33
2018-12-21T06:05:41.058Z,6.42
2018-12-21T06:06:43.496Z,6.52
2018-12-21T06:07:45.955Z,6.55
2018-12-21T06:08:48.452Z,6.53
2018-12-21T06:09:50.905Z,6.45
2018-12-21T06:10:53.342Z,6.50
2018-12-21T06:11:55.779Z,6.49
2018-12-21T06:12:58.246Z,6.53
2018-12-21T06:14:01.167Z,6.42
2018-12-21T06:15:04.534Z,6.43
2018-12-21T06:16:06.996Z,6.44
2018-12-21T06:17:09.444Z,6.44
2018-12-21T06:18:11.900Z,6.42
2018-12-21T06:19:14.345Z,6.41
2018-12-21T06:20:16.800Z,6.32
2018-12-21T06:21:19.238Z,6.40
2018-12-21T06:22:21.679Z,6.40
2018-12-21T06:23:24.135Z,6.48
2018-12-21T06:24:26.591Z,6.51
2018-12-21T06:25:29.048Z,6.46
2018-12-21T06:26:31.500Z,6.46
2018-12-21T06:27:33.939Z,6.54
2018-12-21T06:28:36.408Z,6.61
2018-12-21T06:29:38.888Z,6.66
2018-12-21T06:30:41.410Z,6.68
2018-12-21T06:31:43.892Z,6.56
2018-12-21T06:32:46.361Z,6.42
2018-12-21T06:33:49.028Z,6.28
2018-12-21T06:34:51.466Z,6.31
2018-12-21T06:35:53.944Z,6.30
2018-12-21T06:36:56.402Z,6.42
2018-12-21T06:37:58.844Z,6.39
2018-12-21T06:39:01.307Z,6.32
2018-12-21T06:40:04.744Z,6.25
2018-12-21T06:41:07.188Z,6.25
2018-12-21T06:42:09.631Z,6.18
2018-12-21T06:43:12.077Z,6.26
2018-12-21T06:44:14.540Z,6.36
2018-12-21T06:45:16.992Z,6.46
2018-12-21T06:46:19.439Z,6.57
2018-12-21T06:47:21.892Z,6.62
2018-12-21T06:48:24.339Z,6.67
2018-12-21T06:49:26.811Z,6.73
2018-12-21T06:50:29.295Z,6.78
2018-12-21T06:51:31.731Z,6.58
2018-12-21T06:52:34.194Z,6.83
2018-12-21T06:53:36.783Z,6.84
2018-12-21T06:54:39.279Z,6.85
2018-12-21T06:55:41.752Z,6.88
2018-12-21T06:56:44.220Z,6.90
2018-12-21T06:57:46.664Z,6.92
2018-12-21T06:58:49.136Z,6.92
2018-12-21T06:59:51.601Z,6.93
2018-12-21T07:00:54.041Z,6.94
2018-12-21T07:01:56.487Z,6.95
2018-12-21T07:02:59.129Z,6.93
2018-12-21T07:04:01.715Z,6.91
2018-12-21T07:05:05.782Z,6.93
2018-12-21T07:06:08.235Z,6.91
2018-12-21T07:07:10.671Z,6.96
2018-12-21T07:08:13.108Z,6.96
2018-12-21T07:09:15.535Z,6.98
2018-12-21T07:10:17.995Z,7.00
2018-12-21T07:11:20.443Z,6.97
2018-12-21T07:12:22.958Z,6.97
2018-12-21T07:13:25.400Z,6.91
2018-12-21T07:14:27.837Z,6.93
2018-12-21T07:15:30.323Z,6.93
2018-12-21T07:16:32.790Z,6.93
2018-12-21T07:17:35.248Z,6.90
2018-12-21T07:18:37.689Z,6.88
2018-12-21T07:19:40.119Z,6.87
2018-12-21T07:20:42.687Z,6.90
2018-12-21T07:21:45.146Z,6.88
2018-12-21T07:22:47.588Z,6.86
2018-12-21T07:23:50.045Z,6.85
2018-12-21T07:24:52.511Z,6.80
2018-12-21T07:25:55.085Z,6.84
2018-12-21T07:26:57.589Z,6.88
2018-12-21T07:28:00.033Z,6.88
2018-12-21T07:29:02.477Z,6.92
2018-12-21T07:30:07.790Z,6.95
2018-12-21T07:31:10.331Z,7.00
2018-12-21T07:32:12.815Z,7.02
2018-12-21T07:33:15.250Z,7.03
2018-12-21T07:34:17.699Z,7.00
2018-12-21T07:35:20.156Z,7.01
2018-12-21T07:36:22.624Z,7.07
2018-12-21T07:37:25.155Z,7.08
2018-12-21T07:38:27.737Z,7.07
2018-12-21T07:39:32.286Z,7.07
2018-12-21T07:40:34.742Z,7.09
2018-12-21T07:41:37.224Z,7.12
2018-12-21T07:42:39.704Z,7.12
2018-12-21T07:43:42.163Z,7.14
2018-12-21T07:44:44.591Z,7.11
2018-12-21T07:45:47.037Z,7.12
2018-12-21T07:46:49.515Z,7.17
2018-12-21T07:47:52.005Z,7.17
2018-12-21T07:48:54.460Z,7.14
2018-12-21T07:49:56.901Z,7.11
2018-12-21T07:50:59.388Z,7.14
2018-12-21T07:52:01.860Z,7.07
2018-12-21T07:53:04.352Z,7.06
2018-12-21T07:54:06.801Z,7.02
2018-12-21T07:55:09.233Z,7.01
2018-12-21T07:56:11.731Z,6.95
2018-12-21T07:57:14.189Z,6.94
2018-12-21T07:58:16.680Z,6.97
2018-12-21T07:59:19.137Z,6.95
2018-12-21T08:00:21.683Z,6.97
2018-12-21T08:01:24.155Z,6.95
2018-12-21T08:02:26.663Z,6.94
2018-12-21T08:03:29.115Z,6.93
2018-12-21T08:04:31.567Z,7.01
2018-12-21T08:05:34.129Z,6.99
2018-12-21T08:06:36.562Z,6.98
2018-12-21T08:07:39.028Z,6.95
2018-12-21T08:08:41.499Z,6.96
2018-12-21T08:09:43.970Z,6.96
2018-12-21T08:10:46.413Z,6.97
2018-12-21T08:11:48.874Z,6.94
2018-12-21T08:12:51.370Z,6.96
2018-12-21T08:13:53.846Z,6.93
2018-12-21T08:14:56.304Z,6.95
2018-12-21T08:15:58.771Z,6.97
2018-12-21T08:17:01.215Z,6.97
2018-12-21T08:18:03.907Z,6.96
2018-12-21T08:19:06.379Z,6.93
2018-12-21T08:20:09.033Z,7.00
2018-12-21T08:21:11.752Z,6.78
2018-12-21T08:22:14.229Z,6.83
2018-12-21T08:23:16.720Z,6.87
2018-12-21T08:24:19.201Z,6.91
2018-12-21T08:25:21.984Z,6.89
2018-12-21T08:26:24.571Z,6.84
2018-12-21T08:27:27.027Z,6.82
2018-12-21T08:28:29.620Z,6.75
2018-12-21T08:29:32.063Z,6.71
2018-12-21T08:30:34.522Z,6.70
2018-12-21T08:31:37.083Z,6.58
2018-12-21T08:32:39.639Z,6.56
2018-12-21T08:33:42.095Z,6.55
2018-12-21T08:34:44.523Z,6.52
2018-12-21T08:35:47.020Z,6.61
2018-12-21T08:36:49.474Z,6.55
2018-12-21T08:37:51.899Z,6.62
2018-12-21T08:38:54.353Z,6.50
2018-12-21T08:39:56.810Z,6.47
2018-12-21T08:40:59.263Z,6.64
2018-12-21T08:42:01.715Z,6.78
2018-12-21T08:43:04.145Z,6.79
2018-12-21T08:44:06.606Z,6.77
2018-12-21T08:45:09.137Z,6.79
2018-12-21T08:46:11.875Z,6.88
2018-12-21T08:47:14.344Z,6.87
2018-12-21T08:48:16.820Z,6.83
2018-12-21T08:49:19.796Z,6.83
2018-12-21T08:50:22.327Z,6.76
2018-12-21T08:51:24.898Z,6.73
2018-12-21T08:52:27.385Z,6.77
2018-12-21T08:53:29.851Z,6.78
2018-12-21T08:54:32.305Z,6.83
2018-12-21T08:55:35.537Z,6.88
2018-12-21T08:56:42.611Z,6.98
2018-12-21T08:57:45.041Z,7.01
2018-12-21T08:58:47.547Z,7.06
2018-12-21T08:59:50.095Z,7.14
2018-12-21T09:00:52.563Z,7.23
2018-12-21T09:01:55.069Z,7.21
2018-12-21T09:02:57.710Z,7.13
2018-12-21T09:04:00.200Z,7.15
2018-12-21T09:05:08.243Z,7.22
2018-12-21T09:06:18.383Z,7.31
2018-12-21T09:07:16.095Z,7.19
2018-12-21T09:08:18.536Z,7.14
2018-12-21T09:09:21.031Z,7.18
2018-12-21T09:10:23.674Z,7.25
2018-12-21T09:11:26.123Z,7.35
2018-12-21T09:12:28.606Z,7.40
2018-12-21T09:13:31.349Z,7.47
2018-12-21T09:14:33.830Z,7.52
2018-12-21T09:15:36.283Z,7.64
2018-12-21T09:16:38.966Z,7.69
2018-12-21T09:17:41.551Z,7.72
2018-12-21T09:18:44.018Z,7.70
2018-12-21T09:19:46.471Z,7.73
2018-12-21T09:20:48.914Z,7.81
2018-12-21T09:21:51.374Z,7.85
2018-12-21T09:22:53.825Z,7.82
2018-12-21T09:24:01.113Z,7.80
2018-12-21T09:25:00.823Z,7.80
2018-12-21T09:26:03.387Z,7.89
2018-12-21T09:27:05.894Z,7.89
2018-12-21T09:28:09.177Z,7.94
2018-12-21T09:29:11.681Z,7.95
2018-12-21T09:30:14.186Z,7.99
2018-12-21T09:31:16.644Z,8.06
2018-12-21T09:32:19.146Z,8.01
2018-12-21T09:33:21.587Z,8.05
2018-12-21T09:34:24.085Z,8.09
2018-12-21T09:35:26.513Z,8.07
2018-12-21T09:36:29.028Z,8.00
2018-12-21T09:37:31.574Z,7.97
2018-12-21T09:38:34.019Z,7.97
2018-12-21T09:39:36.474Z,8.04
2018-12-21T09:40:39.010Z,7.99
2018-12-21T09:41:41.591Z,7.94
2018-12-21T09:42:44.108Z,8.04
2018-12-21T09:43:46.804Z,8.10
2018-12-21T09:44:52.629Z,8.11
2018-12-21T09:45:53.774Z,8.10
2018-12-21T09:46:56.300Z,8.14
2018-12-21T09:47:58.744Z,8.17
2018-12-21T09:49:02.498Z,8.11
2018-12-21T09:50:06.196Z,8.14
2018-12-21T09:51:08.672Z,8.18
2018-12-21T09:52:11.227Z,8.18
2018-12-21T09:53:13.699Z,8.24
2018-12-21T09:54:16.166Z,8.20
2018-12-21T09:55:18.595Z,8.12
2018-12-21T09:56:21.160Z,8.16
2018-12-21T09:57:23.627Z,8.19
2018-12-21T09:58:26.159Z,8.21
2018-12-21T09:59:28.607Z,8.20
2018-12-21T10:00:31.078Z,8.21
2018-12-21T10:01:33.526Z,8.22
2018-12-21T10:02:36.154Z,8.19
2018-12-21T10:03:38.756Z,8.21
2018-12-21T10:04:41.233Z,8.19
2018-12-21T10:05:43.710Z,8.16
2018-12-21T10:06:46.173Z,8.14
2018-12-21T10:07:48.998Z,8.13
2018-12-21T10:08:51.607Z,8.15
2018-12-21T10:09:54.209Z,8.14
2018-12-21T10:10:56.653Z,8.12
2018-12-21T10:11:59.103Z,8.17
2018-12-21T10:13:01.851Z,8.24
2018-12-21T10:14:04.515Z,8.23
2018-12-21T10:15:08.167Z,8.25
2018-12-21T10:16:10.775Z,8.26
2018-12-21T10:17:13.309Z,8.26
2018-12-21T10:18:15.805Z,8.23
2018-12-21T10:19:18.594Z,8.24
2018-12-21T10:20:21.213Z,8.20
2018-12-21T10:21:23.683Z,8.22
2018-12-21T10:22:26.335Z,8.24
2018-12-21T10:23:28.812Z,8.24
2018-12-21T10:24:31.290Z,8.15
2018-12-21T10:25:33.734Z,8.12
2018-12-21T10:26:36.259Z,8.13
2018-12-21T10:27:38.973Z,8.16
2018-12-21T10:28:41.536Z,8.19
2018-12-21T10:29:44.073Z,8.29
2018-12-21T10:30:47.275Z,8.33
2018-12-21T10:31:50.247Z,8.35
2018-12-21T10:32:52.811Z,8.37
2018-12-21T10:33:55.315Z,8.38
2018-12-21T10:34:57.769Z,8.39
2018-12-21T10:36:00.212Z,8.38
2018-12-21T10:37:02.702Z,8.41
2018-12-21T10:38:05.143Z,8.41
2018-12-21T10:39:07.711Z,8.36
2018-12-21T10:40:10.357Z,8.34
2018-12-21T10:41:12.805Z,8.38
2018-12-21T10:42:15.256Z,8.36
2018-12-21T10:43:17.690Z,8.37
2018-12-21T10:44:20.344Z,8.39
2018-12-21T10:45:22.841Z,8.35
2018-12-21T10:46:25.312Z,8.24
2018-12-21T10:47:27.754Z,8.30
2018-12-21T10:48:30.233Z,8.36
2018-12-21T10:49:32.721Z,8.25
2018-12-21T10:50:36.454Z,8.25
2018-12-21T10:51:41.613Z,8.26
2018-12-21T10:52:45.890Z,8.27
2018-12-21T10:53:48.407Z,8.35
2018-12-21T10:54:51.692Z,7.79
2018-12-21T10:55:54.244Z,8.34
2018-12-21T10:56:56.813Z,8.30
2018-12-21T10:57:59.788Z,8.30
2018-12-21T10:59:02.314Z,8.35
2018-12-21T11:00:07.440Z,8.27
2018-12-21T11:01:10.318Z,8.24
2018-12-21T11:02:13.123Z,8.16
2018-12-21T11:03:15.819Z,8.16
2018-12-21T11:04:19.379Z,8.16
2018-12-21T11:05:22.252Z,8.17
2018-12-21T11:06:24.795Z,8.16
2018-12-21T11:07:27.465Z,8.13
2018-12-21T11:08:30.290Z,8.19
2018-12-21T11:09:32.875Z,8.23
2018-12-21T11:10:35.328Z,8.20
2018-12-21T11:11:37.817Z,8.21
2018-12-21T11:12:40.306Z,8.24
2018-12-21T11:13:42.740Z,8.25
2018-12-21T11:14:45.264Z,8.16
2018-12-21T11:15:47.848Z,8.19
2018-12-21T11:16:50.367Z,8.28
2018-12-21T11:17:52.811Z,8.15
2018-12-21T11:18:55.343Z,7.96
2018-12-21T11:19:57.876Z,7.98
2018-12-21T11:21:00.432Z,8.00
2018-12-21T11:22:02.884Z,8.02
2018-12-21T11:23:05.402Z,7.99
2018-12-21T11:24:09.075Z,8.11
2018-12-21T11:25:11.691Z,8.12
2018-12-21T11:26:14.166Z,8.16
2018-12-21T11:27:16.670Z,8.06
2018-12-21T11:28:25.319Z,7.95
2018-12-21T11:29:23.818Z,7.90
2018-12-21T11:30:26.443Z,7.77
2018-12-21T11:31:28.978Z,7.57
2018-12-21T11:32:31.448Z,7.47
2018-12-21T11:33:34.018Z,7.54
2018-12-21T11:34:36.471Z,7.74
2018-12-21T11:35:39.086Z,7.84
2018-12-21T11:36:41.583Z,7.76
2018-12-21T11:37:44.040Z,7.77
2018-12-21T11:38:46.719Z,7.74
2018-12-21T11:39:49.557Z,7.75
2018-12-21T11:40:51.991Z,7.78
2018-12-21T11:41:54.458Z,7.76
2018-12-21T11:42:56.931Z,7.67
2018-12-21T11:43:59.436Z,7.61
2018-12-21T11:45:01.872Z,7.51
2018-12-21T11:46:04.332Z,7.62
2018-12-21T11:47:07.671Z,7.36
2018-12-21T11:48:10.125Z,7.33
2018-12-21T11:49:12.611Z,7.35
2018-12-21T11:50:15.058Z,7.26
2018-12-21T11:51:17.570Z,7.22
2018-12-21T11:52:20.059Z,7.35
2018-12-21T11:53:22.515Z,7.43
2018-12-21T11:54:24.947Z,7.48
2018-12-21T11:55:27.407Z,7.49
2018-12-21T11:56:29.844Z,7.45
2018-12-21T11:57:32.503Z,7.46
2018-12-21T11:58:34.969Z,7.50
2018-12-21T11:59:44.672Z,7.54
2018-12-21T12:00:42.056Z,7.51
2018-12-21T12:01:44.516Z,7.60
2018-12-21T12:02:47.316Z,7.71
2018-12-21T12:03:50.133Z,7.64
2018-12-21T12:04:52.602Z,7.61
2018-12-21T12:05:55.063Z,7.68
2018-12-21T12:06:57.528Z,7.64
2018-12-21T12:08:00.815Z,7.68
2018-12-21T12:09:06.301Z,7.73
2018-12-21T12:10:09.193Z,7.72
2018-12-21T12:11:11.638Z,7.71
2018-12-21T12:12:14.079Z,7.74
2018-12-21T12:13:16.576Z,7.63
2018-12-21T12:14:19.044Z,7.70
2018-12-21T12:15:22.346Z,7.72
2018-12-21T12:16:24.810Z,7.73
2018-12-21T12:17:27.375Z,7.71
2018-12-21T12:19:48.860Z,7.67
2018-12-21T12:20:51.816Z,7.73
2018-12-21T12:21:54.295Z,7.80
2018-12-21T12:22:57.022Z,7.81
2018-12-21T12:23:59.811Z,7.83
2018-12-21T12:25:02.289Z,7.84
2018-12-21T12:26:05.534Z,7.88
2018-12-21T12:27:13.331Z,7.94
2018-12-21T12:28:16.571Z,7.93
2018-12-21T12:29:26.146Z,7.99
2018-12-21T12:30:31.957Z,7.93
2018-12-21T12:31:35.032Z,7.92
2018-12-21T12:32:37.477Z,7.97
2018-12-21T12:33:42.546Z,7.97
2018-12-21T12:34:46.554Z,7.86
2018-12-21T12:35:49.899Z,7.89
2018-12-21T12:36:52.528Z,7.85
2018-12-21T12:37:55.004Z,7.83
2018-12-21T12:39:00.711Z,7.88
2018-12-21T12:40:03.895Z,7.92
2018-12-21T12:41:07.013Z,7.95
2018-12-21T12:42:09.734Z,8.00
2018-12-21T12:43:12.799Z,8.07
2018-12-21T12:44:15.817Z,8.04
2018-12-21T12:45:18.280Z,8.01
2018-12-21T12:46:21.382Z,8.04
2018-12-21T12:47:24.286Z,8.02
2018-12-21T12:48:26.746Z,8.03
2018-12-21T12:49:29.208Z,8.03
2018-12-21T12:50:31.663Z,8.07
2018-12-21T12:51:34.123Z,8.14
2018-12-21T12:52:36.595Z,8.16
2018-12-21T12:53:39.245Z,8.15
2018-12-21T12:54:41.737Z,8.03
2018-12-21T12:55:44.194Z,8.08
2018-12-21T12:56:46.668Z,8.08
2018-12-21T12:57:49.152Z,7.88
2018-12-21T12:58:51.901Z,7.85
2018-12-21T12:59:54.345Z,7.81
2018-12-21T13:00:56.817Z,7.80
2018-12-21T13:01:59.304Z,7.84
2018-12-21T13:03:01.841Z,7.89
2018-12-21T13:04:04.380Z,7.94
2018-12-21T13:05:07.597Z,8.02
2018-12-21T13:06:10.113Z,8.03
2018-12-21T13:07:12.676Z,8.05
2018-12-21T13:08:15.131Z,7.94
2018-12-21T13:09:17.601Z,7.87
2018-12-21T13:10:20.064Z,7.84
2018-12-21T13:11:22.531Z,7.84
2018-12-21T13:12:25.012Z,7.90
2018-12-21T13:13:27.572Z,7.97
2018-12-21T13:14:30.048Z,7.96
2018-12-21T13:15:32.501Z,8.04
2018-12-21T13:16:35.006Z,8.09
2018-12-21T13:17:37.484Z,8.18
2018-12-21T13:18:40.040Z,8.16
2018-12-21T13:19:42.511Z,8.23
2018-12-21T13:20:44.948Z,8.29
2018-12-21T13:21:47.443Z,8.38
2018-12-21T13:22:50.105Z,8.48
2018-12-21T13:23:52.541Z,8.55
2018-12-21T13:24:55.066Z,8.61
2018-12-21T13:25:57.571Z,8.65
2018-12-21T13:27:00.043Z,8.69
2018-12-21T13:28:02.499Z,8.65
2018-12-21T13:29:05.008Z,8.65
2018-12-21T13:30:08.695Z,8.72
2018-12-21T13:31:11.150Z,8.81
2018-12-21T13:32:13.616Z,8.82
2018-12-21T13:33:16.124Z,8.90
2018-12-21T13:34:18.572Z,8.88
2018-12-21T13:35:21.010Z,8.94
2018-12-21T13:36:23.496Z,9.00
2018-12-21T13:37:26.049Z,9.02
2018-12-21T13:38:28.549Z,9.00
2018-12-21T13:39:31.013Z,9.01
2018-12-21T13:40:33.452Z,9.02
2018-12-21T13:41:35.926Z,9.09
2018-12-21T13:42:38.506Z,9.02
2018-12-21T13:43:40.951Z,9.10
2018-12-21T13:44:43.384Z,9.13
2018-12-21T13:45:45.852Z,9.18
2018-12-21T13:46:48.320Z,9.18
2018-12-21T13:47:50.775Z,9.23
2018-12-21T13:48:53.232Z,9.28
2018-12-21T13:49:55.696Z,9.26
2018-12-21T13:50:58.128Z,9.31
2018-12-21T13:52:00.650Z,9.35
2018-12-21T13:53:03.187Z,9.37
2018-12-21T13:54:06.240Z,9.40
2018-12-21T13:55:09.856Z,9.43
2018-12-21T13:56:12.288Z,9.43